Time;durP1;ratioP1;P1;durP2;ratioP2;P2;SDS_P1;SDS_P2;PMS_P1;PMS_P2;Temp;Humidity;BMP_temperature;BMP_pressure;BME280_temperature;BME280_humidity;BME280_pressure;Samples;Min_cycle;Max_cycle;Signal;HPM_P1;HPM_P2
2021/12/05 00:19:34;;;;;;;9.80;5.00;;;;;;;;;;5040676;28;20265;-70
2021/12/05 00:22:10;;;;;;;8.67;3.77;;;;;;;;;;5040074;28;20792;-70
2021/12/05 00:24:44;;;;;;;9.23;3.67;;;;;;;;;;5040381;28;20238;-70
2021/12/05 00:27:17;;;;;;;8.93;4.40;;;;;;;;;;5040900;28;20198;-71
2021/12/05 00:29:54;;;;;;;10.50;4.43;;;;;;;;;;5039942;28;20232;-72
2021/12/05 00:32:29;;;;;;;8.73;4.30;;;;;;;;;;5040181;28;20334;-71
2021/12/05 00:40:54;;;;;;;12.83;5.90;;;;;;;;;;5039856;28;20239;-71
2021/12/05 01:00:14;;;;;;;14.03;7.07;;;;;;;;;;5085753;27;20594;-70
2021/12/05 01:02:49;;;;;;;13.70;7.13;;;;;;;;;;5078579;28;20827;-70
2021/12/05 01:05:36;;;;;;;13.20;6.60;;;;;;;;;;5077129;28;20211;-71
2021/12/05 01:08:21;;;;;;;12.83;6.57;;;;;;;;;;5077687;28;20209;-71
2021/12/05 01:11:09;;;;;;;19.53;7.87;;;;;;;;;;5077620;28;20256;-71
2021/12/05 01:13:42;;;;;;;12.20;8.03;;;;;;;;;;5078167;28;20207;-71
2021/12/05 01:16:13;;;;;;;12.80;8.60;;;;;;;;;;5077903;28;20580;-71
2021/12/05 01:18:40;;;;;;;15.23;7.73;;;;;;;;;;5077854;28;20221;-70
2021/12/05 01:21:11;;;;;;;18.63;8.87;;;;;;;;;;5078818;28;20236;-70
2021/12/05 01:23:48;;;;;;;15.03;8.93;;;;;;;;;;5077383;28;20211;-70
2021/12/05 01:26:20;;;;;;;16.10;8.97;;;;;;;;;;5075740;28;20304;-70
2021/12/05 01:29:03;;;;;;;17.30;9.53;;;;;;;;;;5078614;28;20216;-70
2021/12/05 01:31:41;;;;;;;16.83;9.27;;;;;;;;;;5078311;28;20229;-72
2021/12/05 01:34:19;;;;;;;15.60;8.33;;;;;;;;;;5076388;28;20550;-70
2021/12/05 01:36:56;;;;;;;19.53;9.00;;;;;;;;;;5076814;28;20205;-69
2021/12/05 01:39:35;;;;;;;14.10;8.40;;;;;;;;;;5077598;28;20791;-70
2021/12/05 01:45:20;;;;;;;19.93;9.73;;;;;;;;;;5076712;28;20275;-70
2021/12/05 01:48:24;;;;;;;25.60;11.00;;;;;;;;;;5077196;28;20347;-70
2021/12/05 01:51:17;;;;;;;18.33;9.53;;;;;;;;;;5076117;28;20600;-70
2021/12/05 01:54:04;;;;;;;20.70;10.27;;;;;;;;;;5077321;28;20421;-70
2021/12/05 01:59:30;;;;;;;19.50;9.50;;;;;;;;;;5064409;28;20832;-70
2021/12/05 02:16:01;;;;;;;17.67;9.50;;;;;;;;;;5062727;28;20232;-70
2021/12/05 02:30:07;;;;;;;17.07;7.47;;;;;;;;;;5038810;28;20252;-69
2021/12/05 02:35:38;;;;;;;15.90;7.83;;;;;;;;;;5055986;28;20576;-69
2021/12/05 02:41:09;;;;;;;18.23;7.50;;;;;;;;;;5061497;28;20765;-70
2021/12/05 02:43:40;;;;;;;14.93;6.93;;;;;;;;;;5062738;28;20275;-70
2021/12/05 02:46:07;;;;;;;17.27;7.37;;;;;;;;;;5061447;28;20393;-70
2021/12/05 02:48:37;;;;;;;17.37;7.53;;;;;;;;;;5060871;28;20280;-70
2021/12/05 02:51:08;;;;;;;21.80;7.63;;;;;;;;;;5061576;28;20472;-70
2021/12/05 02:53:40;;;;;;;20.27;8.13;;;;;;;;;;5062682;28;20627;-70
2021/12/05 02:56:09;;;;;;;13.93;6.63;;;;;;;;;;5060884;28;20233;-70
2021/12/05 02:58:41;;;;;;;12.77;6.60;;;;;;;;;;5061519;28;20766;-70
2021/12/05 03:01:17;;;;;;;13.73;6.83;;;;;;;;;;5063173;28;20693;-69
2021/12/05 03:03:44;;;;;;;11.80;6.33;;;;;;;;;;5061337;28;20639;-69
2021/12/05 03:06:16;;;;;;;16.57;6.60;;;;;;;;;;5060465;28;20221;-70
2021/12/05 03:08:45;;;;;;;15.07;6.30;;;;;;;;;;5062495;28;20213;-70
2021/12/05 03:11:12;;;;;;;17.50;6.47;;;;;;;;;;5060620;28;20229;-70
2021/12/05 03:13:40;;;;;;;15.70;6.97;;;;;;;;;;5060494;28;20214;-71
2021/12/05 03:16:09;;;;;;;20.93;6.77;;;;;;;;;;5061982;28;20265;-70
2021/12/05 03:18:35;;;;;;;14.37;6.07;;;;;;;;;;5061501;28;20236;-70
2021/12/05 03:21:04;;;;;;;13.47;5.27;;;;;;;;;;5060577;28;20214;-70
2021/12/05 03:23:31;;;;;;;13.80;5.73;;;;;;;;;;5061113;28;20214;-70
2021/12/05 03:25:59;;;;;;;13.10;6.27;;;;;;;;;;5060944;28;20237;-70
2021/12/05 03:28:25;;;;;;;13.10;5.63;;;;;;;;;;5060503;28;20218;-70
2021/12/05 03:30:51;;;;;;;16.33;5.90;;;;;;;;;;5060848;28;20234;-71
2021/12/05 03:33:18;;;;;;;19.77;6.23;;;;;;;;;;5061650;28;20217;-70
2021/12/05 03:35:44;;;;;;;13.43;6.13;;;;;;;;;;5060086;28;20359;-70
2021/12/05 03:38:11;;;;;;;10.87;6.20;;;;;;;;;;5060804;28;20243;-70
2021/12/05 03:40:38;;;;;;;16.17;5.83;;;;;;;;;;5061861;28;20290;-70
2021/12/05 03:43:08;;;;;;;17.60;6.80;;;;;;;;;;5060524;28;20881;-70
2021/12/05 03:45:38;;;;;;;17.67;5.63;;;;;;;;;;5060168;28;21167;-70
2021/12/05 03:48:06;;;;;;;15.70;5.77;;;;;;;;;;5060423;28;20256;-70
2021/12/05 03:50:33;;;;;;;12.70;5.50;;;;;;;;;;5060598;28;20283;-70
2021/12/05 03:53:00;;;;;;;9.97;5.53;;;;;;;;;;5060492;28;20206;-70
2021/12/05 03:55:27;;;;;;;17.20;6.10;;;;;;;;;;5061717;28;20279;-70
2021/12/05 03:57:54;;;;;;;13.00;5.63;;;;;;;;;;5060234;28;20237;-70
2021/12/05 04:00:25;;;;;;;10.63;4.80;;;;;;;;;;5059264;28;20260;-70
2021/12/05 04:02:54;;;;;;;11.83;5.07;;;;;;;;;;5061790;28;20675;-70
2021/12/05 04:05:21;;;;;;;14.00;5.60;;;;;;;;;;5060942;28;20226;-70
2021/12/05 04:07:47;;;;;;;10.07;4.27;;;;;;;;;;5059639;28;20291;-70
2021/12/05 04:10:14;;;;;;;13.87;5.00;;;;;;;;;;5060426;28;20256;-70
2021/12/05 04:12:41;;;;;;;12.07;4.47;;;;;;;;;;5061085;28;20210;-70
2021/12/05 04:15:10;;;;;;;10.60;4.37;;;;;;;;;;5059163;28;20275;-70
2021/12/05 04:17:38;;;;;;;13.60;5.13;;;;;;;;;;5059801;28;20229;-71
2021/12/05 04:20:07;;;;;;;10.37;4.20;;;;;;;;;;5060786;28;20289;-71
2021/12/05 04:22:33;;;;;;;13.50;4.77;;;;;;;;;;5059678;28;20259;-72
2021/12/05 04:25:04;;;;;;;12.00;4.83;;;;;;;;;;5058675;28;20670;-71
2021/12/05 04:27:31;;;;;;;14.33;4.33;;;;;;;;;;5061009;28;20314;-71
2021/12/05 04:29:57;;;;;;;16.83;5.10;;;;;;;;;;5058232;28;20263;-71
2021/12/05 04:32:24;;;;;;;9.07;3.80;;;;;;;;;;5060165;28;20226;-71
2021/12/05 04:34:52;;;;;;;10.47;4.60;;;;;;;;;;5061169;28;20224;-71
2021/12/05 04:37:18;;;;;;;14.80;4.10;;;;;;;;;;5059398;28;20263;-71
2021/12/05 04:39:45;;;;;;;14.83;4.33;;;;;;;;;;5058889;28;20766;-71
2021/12/05 04:42:11;;;;;;;9.47;4.40;;;;;;;;;;5061175;28;20302;-71
2021/12/05 04:44:37;;;;;;;15.73;4.53;;;;;;;;;;5059726;28;20205;-71
2021/12/05 04:47:05;;;;;;;13.73;4.23;;;;;;;;;;5059497;28;20262;-71
2021/12/05 04:49:32;;;;;;;7.73;4.03;;;;;;;;;;5060772;28;20782;-71
2021/12/05 04:52:01;;;;;;;11.13;4.73;;;;;;;;;;5060217;28;20259;-71
2021/12/05 04:54:27;;;;;;;14.43;5.30;;;;;;;;;;5059124;28;20221;-71
2021/12/05 04:56:54;;;;;;;13.10;5.07;;;;;;;;;;5059644;28;20279;-71
2021/12/05 04:59:24;;;;;;;9.43;6.47;;;;;;;;;;5060519;28;20301;-71
2021/12/05 05:01:53;;;;;;;14.57;5.07;;;;;;;;;;5058415;28;20830;-71
2021/12/05 05:04:25;;;;;;;13.77;5.57;;;;;;;;;;5058715;28;20215;-71
2021/12/05 05:06:52;;;;;;;13.00;5.60;;;;;;;;;;5061043;28;20685;-71
2021/12/05 05:09:20;;;;;;;12.57;5.47;;;;;;;;;;5060535;28;20820;-72
2021/12/05 05:11:47;;;;;;;12.10;4.90;;;;;;;;;;5057910;28;20228;-71
2021/12/05 05:14:14;;;;;;;11.10;5.97;;;;;;;;;;5060337;28;20267;-71
2021/12/05 05:16:41;;;;;;;11.80;5.57;;;;;;;;;;5059500;28;20230;-71
2021/12/05 05:19:09;;;;;;;12.77;6.30;;;;;;;;;;5058916;28;20359;-71
2021/12/05 05:21:41;;;;;;;17.00;7.00;;;;;;;;;;5058815;28;20213;-71
2021/12/05 05:27:27;;;;;;;12.83;6.97;;;;;;;;;;5056629;28;20218;-71
2021/12/05 05:41:23;;;;;;;11.37;7.00;;;;;;;;;;5058612;28;20241;-77
2021/12/05 05:44:23;;;;;;;13.80;8.07;;;;;;;;;;5059904;28;20210;-77
2021/12/05 05:46:57;;;;;;;15.03;8.13;;;;;;;;;;5063362;28;20221;-77
2021/12/05 05:49:32;;;;;;;12.07;7.87;;;;;;;;;;5064789;28;20830;-77
2021/12/05 05:51:59;;;;;;;11.20;7.17;;;;;;;;;;5063202;28;20706;-77
2021/12/05 05:54:26;;;;;;;12.90;7.70;;;;;;;;;;5062102;28;20645;-76
2021/12/05 05:56:57;;;;;;;15.43;8.47;;;;;;;;;;5065080;28;20217;-75
2021/12/05 05:59:29;;;;;;;13.90;7.80;;;;;;;;;;5062995;28;20917;-76
2021/12/05 06:03:20;;;;;;;13.17;7.90;;;;;;;;;;5061731;28;20236;-76
2021/12/05 06:04:50;;;;;;;12.57;7.27;;;;;;;;;;5064782;28;20241;-75
2021/12/05 06:07:16;;;;;;;14.07;8.47;;;;;;;;;;5063053;28;20218;-76
2021/12/05 06:09:43;;;;;;;13.83;8.00;;;;;;;;;;5060312;28;20594;-76
2021/12/05 06:12:10;;;;;;;12.20;8.47;;;;;;;;;;5063212;28;20206;-75
2021/12/05 06:14:38;;;;;;;14.37;7.93;;;;;;;;;;5063239;28;20697;-75
2021/12/05 06:17:04;;;;;;;13.67;8.07;;;;;;;;;;5061913;28;20229;-76
2021/12/05 06:19:31;;;;;;;12.33;8.00;;;;;;;;;;5063227;28;20229;-75
2021/12/05 06:21:57;;;;;;;9.57;7.27;;;;;;;;;;5062958;28;20209;-74
2021/12/05 06:24:25;;;;;;;12.97;8.53;;;;;;;;;;5060381;28;21093;-76
2021/12/05 06:26:51;;;;;;;14.87;7.80;;;;;;;;;;5062123;28;20224;-75
2021/12/05 06:29:20;;;;;;;12.03;8.83;;;;;;;;;;5064163;28;20730;-76
2021/12/05 06:32:17;;;;;;;13.73;8.10;;;;;;;;;;5062148;28;20234;-75
2021/12/05 06:37:45;;;;;;;14.30;8.63;;;;;;;;;;5061717;28;20343;-75
2021/12/05 06:40:22;;;;;;;15.80;8.87;;;;;;;;;;5061874;28;20276;-75
2021/12/05 06:42:55;;;;;;;14.13;7.63;;;;;;;;;;5061868;28;20298;-75
2021/12/05 06:48:08;;;;;;;15.37;9.13;;;;;;;;;;5061665;28;20244;-76
2021/12/05 06:50:34;;;;;;;13.07;8.47;;;;;;;;;;5062758;28;20212;-75
2021/12/05 06:53:00;;;;;;;14.47;9.33;;;;;;;;;;5061148;28;20236;-75
2021/12/05 06:55:27;;;;;;;16.97;8.60;;;;;;;;;;5061492;28;20320;-75
2021/12/05 06:57:53;;;;;;;18.10;8.57;;;;;;;;;;5062889;28;20759;-75
2021/12/05 07:00:24;;;;;;;13.77;8.27;;;;;;;;;;5061244;28;20226;-75
2021/12/05 07:02:51;;;;;;;18.30;9.07;;;;;;;;;;5058699;28;20371;-75
2021/12/05 07:08:05;;;;;;;13.43;8.37;;;;;;;;;;5059629;28;20217;-75
2021/12/05 07:10:38;;;;;;;14.57;8.87;;;;;;;;;;5059978;28;20234;-75
2021/12/05 07:15:52;;;;;;;13.40;8.70;;;;;;;;;;5058906;28;20237;-75
2021/12/05 07:21:18;;;;;;;14.23;8.60;;;;;;;;;;5059848;28;20253;-75
2021/12/05 07:23:53;;;;;;;14.17;9.93;;;;;;;;;;5059350;28;20214;-75
2021/12/05 07:26:28;;;;;;;12.07;8.53;;;;;;;;;;5059417;28;20220;-75
2021/12/05 07:42:41;;;;;;;16.13;8.53;;;;;;;;;;5059733;28;20259;-76
2021/12/05 07:45:09;;;;;;;12.93;9.00;;;;;;;;;;5058876;28;20425;-76
2021/12/05 07:47:39;;;;;;;12.53;7.97;;;;;;;;;;5059669;28;20593;-76
2021/12/05 07:50:10;;;;;;;15.50;8.87;;;;;;;;;;5061955;28;20206;-76
2021/12/05 07:52:41;;;;;;;14.67;8.40;;;;;;;;;;5060516;28;20206;-76
2021/12/05 07:55:16;;;;;;;13.80;8.93;;;;;;;;;;5059409;28;20237;-76
2021/12/05 07:57:58;;;;;;;21.63;10.03;;;;;;;;;;5058377;28;20652;-75
2021/12/05 08:00:31;;;;;;;12.03;8.23;;;;;;;;;;5058865;28;20259;-76
2021/12/05 08:16:45;;;;;;;14.97;8.83;;;;;;;;;;5059818;28;20719;-75
2021/12/05 08:19:11;;;;;;;13.53;8.83;;;;;;;;;;5055565;28;21056;-76
2021/12/05 08:21:38;;;;;;;14.20;8.63;;;;;;;;;;5058684;28;20996;-76
2021/12/05 08:24:05;;;;;;;17.77;9.43;;;;;;;;;;5059277;28;20210;-76
2021/12/05 08:26:34;;;;;;;13.50;9.23;;;;;;;;;;5056522;28;20222;-75
2021/12/05 08:29:08;;;;;;;13.13;8.30;;;;;;;;;;5057185;28;20214;-76
2021/12/05 08:31:54;;;;;;;12.60;8.20;;;;;;;;;;5056754;28;20213;-76
2021/12/05 08:34:42;;;;;;;10.57;8.63;;;;;;;;;;5057023;28;20221;-75
2021/12/05 08:43:34;;;;;;;11.17;8.47;;;;;;;;;;5063108;28;20222;-76
2021/12/05 09:20:31;;;;;;;14.77;9.80;;;;;;;;;;5053458;28;20260;-75
2021/12/05 09:23:05;;;;;;;14.53;8.47;;;;;;;;;;5055530;28;20221;-76
2021/12/05 09:31:23;;;;;;;15.30;9.20;;;;;;;;;;5035963;28;20230;-75
2021/12/05 10:02:07;;;;;;;13.90;9.20;;;;;;;;;;5039284;28;20233;-76
2021/12/05 10:07:32;;;;;;;10.73;8.80;;;;;;;;;;5040840;28;20703;-76
2021/12/05 10:10:11;;;;;;;12.07;9.13;;;;;;;;;;5039401;28;20226;-76
2021/12/05 10:13:00;;;;;;;14.30;9.40;;;;;;;;;;5041001;28;20326;-76
2021/12/05 10:15:39;;;;;;;11.97;9.23;;;;;;;;;;5042615;28;20207;-76
2021/12/05 10:27:13;;;;;;;10.50;9.10;;;;;;;;;;4987976;28;20313;-76
2021/12/05 10:35:50;;;;;;;10.30;7.77;;;;;;;;;;5008682;28;20313;-76
2021/12/05 10:38:27;;;;;;;10.43;8.50;;;;;;;;;;5038741;28;20245;-75
2021/12/05 10:41:01;;;;;;;10.23;8.83;;;;;;;;;;5039658;28;20230;-76
2021/12/05 10:43:30;;;;;;;12.33;8.23;;;;;;;;;;5039176;28;20854;-76
2021/12/05 10:46:03;;;;;;;9.00;7.77;;;;;;;;;;5038252;28;20230;-76
2021/12/05 10:48:33;;;;;;;9.73;8.53;;;;;;;;;;5039353;28;20226;-76
2021/12/05 10:51:02;;;;;;;12.20;8.77;;;;;;;;;;5037606;28;20206;-76
2021/12/05 10:53:37;;;;;;;9.87;8.33;;;;;;;;;;5040030;28;20211;-76
2021/12/05 10:56:09;;;;;;;8.93;8.03;;;;;;;;;;5038895;28;20229;-77
2021/12/05 10:58:43;;;;;;;11.17;8.90;;;;;;;;;;5040798;28;20235;-77
2021/12/05 11:01:20;;;;;;;12.33;9.17;;;;;;;;;;5039208;28;20456;-77
2021/12/05 11:03:48;;;;;;;9.37;8.37;;;;;;;;;;5038089;28;20214;-77
2021/12/05 11:06:25;;;;;;;13.30;8.97;;;;;;;;;;5039374;28;20630;-76
2021/12/05 11:09:01;;;;;;;11.43;8.63;;;;;;;;;;5037977;28;20206;-76
2021/12/05 11:11:28;;;;;;;9.57;8.53;;;;;;;;;;5039864;28;20292;-76
2021/12/05 11:13:57;;;;;;;9.67;8.57;;;;;;;;;;5038185;28;20215;-76
2021/12/05 11:17:03;;;;;;;9.27;8.27;;;;;;;;;;5039767;28;20235;-76
2021/12/05 11:19:34;;;;;;;10.13;9.13;;;;;;;;;;5029253;28;20222;-76
2021/12/05 11:22:11;;;;;;;9.60;8.60;;;;;;;;;;5039318;28;20308;-76
2021/12/05 11:24:43;;;;;;;8.83;7.93;;;;;;;;;;5039220;28;20225;-76
2021/12/05 11:27:14;;;;;;;9.37;8.23;;;;;;;;;;5037372;28;20207;-76
2021/12/05 11:29:44;;;;;;;9.73;8.73;;;;;;;;;;5039592;28;20203;-76
2021/12/05 11:32:13;;;;;;;9.00;7.83;;;;;;;;;;5036976;28;20299;-76
2021/12/05 11:34:39;;;;;;;9.83;8.33;;;;;;;;;;5040080;28;20221;-76
2021/12/05 11:37:06;;;;;;;9.37;8.40;;;;;;;;;;5038432;28;20657;-76
2021/12/05 11:39:32;;;;;;;10.03;8.23;;;;;;;;;;5039644;28;20704;-76
2021/12/05 11:42:00;;;;;;;10.03;7.67;;;;;;;;;;5038075;28;20215;-76
2021/12/05 11:44:28;;;;;;;9.00;7.67;;;;;;;;;;5038791;28;20206;-76
2021/12/05 11:46:54;;;;;;;9.57;8.40;;;;;;;;;;5038452;28;20227;-75
2021/12/05 11:49:23;;;;;;;9.50;8.07;;;;;;;;;;5038519;28;20230;-76
2021/12/05 11:51:52;;;;;;;7.90;7.10;;;;;;;;;;5039199;28;20577;-77
2021/12/05 11:54:21;;;;;;;10.30;8.40;;;;;;;;;;5038183;28;20674;-76
2021/12/05 11:56:51;;;;;;;10.83;8.23;;;;;;;;;;5039678;28;20215;-76
2021/12/05 11:59:25;;;;;;;11.53;8.60;;;;;;;;;;5037445;28;20280;-76
2021/12/05 12:01:56;;;;;;;11.83;9.40;;;;;;;;;;5040406;28;20226;-76
2021/12/05 12:04:25;;;;;;;10.47;9.17;;;;;;;;;;5036278;28;20654;-77
2021/12/05 12:07:10;;;;;;;11.80;9.13;;;;;;;;;;5039122;28;20214;-76
2021/12/05 12:09:36;;;;;;;10.73;8.47;;;;;;;;;;5038639;28;20223;-78
2021/12/05 12:12:03;;;;;;;9.83;8.70;;;;;;;;;;5038617;28;20215;-77
2021/12/05 12:14:31;;;;;;;9.83;8.83;;;;;;;;;;5036474;28;20215;-77
2021/12/05 12:16:58;;;;;;;9.97;8.80;;;;;;;;;;5040043;28;20691;-77
2021/12/05 12:19:25;;;;;;;9.97;8.43;;;;;;;;;;5040512;28;20715;-77
2021/12/05 12:21:56;;;;;;;11.43;8.97;;;;;;;;;;5038821;28;20211;-77
2021/12/05 12:24:23;;;;;;;10.77;9.67;;;;;;;;;;5040164;28;21146;-77
2021/12/05 12:26:50;;;;;;;9.50;8.60;;;;;;;;;;5037315;28;20268;-77
2021/12/05 12:29:16;;;;;;;11.17;8.80;;;;;;;;;;5040235;28;20203;-77
2021/12/05 12:31:48;;;;;;;9.27;8.10;;;;;;;;;;5038870;28;20214;-76
2021/12/05 12:34:18;;;;;;;10.37;8.53;;;;;;;;;;5038604;28;20206;-76
2021/12/05 12:36:46;;;;;;;12.27;8.73;;;;;;;;;;5040251;28;20210;-76
2021/12/05 12:39:32;;;;;;;11.83;9.40;;;;;;;;;;5037036;28;20250;-76
2021/12/05 12:42:23;;;;;;;9.43;7.60;;;;;;;;;;5039072;28;20218;-76
2021/12/05 12:45:13;;;;;;;11.70;8.00;;;;;;;;;;5034186;28;20218;-76
2021/12/05 12:47:43;;;;;;;6.17;5.50;;;;;;;;;;5039265;28;20222;-77
2021/12/05 12:50:34;;;;;;;6.27;5.63;;;;;;;;;;5037914;28;20260;-76
2021/12/05 12:53:14;;;;;;;6.60;5.80;;;;;;;;;;5040796;28;20242;-78
2021/12/05 12:55:49;;;;;;;6.07;5.47;;;;;;;;;;5038901;28;20591;-77
2021/12/05 12:58:43;;;;;;;7.37;5.70;;;;;;;;;;5039009;28;20661;-77
2021/12/05 13:01:18;;;;;;;6.00;5.40;;;;;;;;;;5039877;28;20283;-77
2021/12/05 13:10:04;;;;;;;7.57;6.60;;;;;;;;;;4981192;28;20825;-76
2021/12/05 13:12:48;;;;;;;7.50;6.77;;;;;;;;;;5040601;28;20676;-76
2021/12/05 13:15:19;;;;;;;8.23;7.17;;;;;;;;;;5037358;28;20214;-77
2021/12/05 13:17:48;;;;;;;9.20;8.30;;;;;;;;;;5039475;28;20656;-77
2021/12/05 13:20:19;;;;;;;7.10;6.40;;;;;;;;;;5039702;28;20272;-80
2021/12/05 13:23:01;;;;;;;7.80;7.00;;;;;;;;;;5037222;28;20218;-77
2021/12/05 13:25:28;;;;;;;9.10;7.17;;;;;;;;;;5040021;28;20233;-77
2021/12/05 13:27:54;;;;;;;16.17;10.73;;;;;;;;;;5042975;28;20772;-77
2021/12/05 13:30:28;;;;;;;11.53;9.13;;;;;;;;;;5041768;28;20264;-78
2021/12/05 13:33:16;;;;;;;9.27;7.47;;;;;;;;;;5043633;28;20272;-77
2021/12/05 13:35:44;;;;;;;8.60;7.70;;;;;;;;;;5041959;28;20261;-77
2021/12/05 13:38:31;;;;;;;7.83;6.97;;;;;;;;;;5041728;28;20316;-77
2021/12/05 13:41:10;;;;;;;7.97;6.80;;;;;;;;;;5043081;28;20341;-77
2021/12/05 13:43:37;;;;;;;8.70;7.43;;;;;;;;;;5042382;28;20601;-77
2021/12/05 13:46:36;;;;;;;9.00;7.57;;;;;;;;;;5040981;28;20231;-77
2021/12/05 13:49:32;;;;;;;8.97;7.60;;;;;;;;;;5043631;28;20237;-77
2021/12/05 13:52:35;;;;;;;8.23;7.17;;;;;;;;;;5042861;28;20210;-77
2021/12/05 13:55:34;;;;;;;7.37;6.40;;;;;;;;;;5035396;28;20238;-77
2021/12/05 13:58:27;;;;;;;7.40;6.70;;;;;;;;;;5036132;28;20381;-76
2021/12/05 14:00:58;;;;;;;7.57;6.70;;;;;;;;;;5042534;28;20412;-77
2021/12/05 14:03:48;;;;;;;7.73;6.77;;;;;;;;;;5040888;28;20260;-77
2021/12/05 14:06:53;;;;;;;8.17;6.77;;;;;;;;;;5039797;28;20202;-76
2021/12/05 14:09:29;;;;;;;8.23;7.43;;;;;;;;;;4998904;28;20294;-77
2021/12/05 14:12:01;;;;;;;8.23;7.20;;;;;;;;;;4996390;28;20515;-77
2021/12/05 14:14:34;;;;;;;10.40;7.90;;;;;;;;;;5021826;28;20264;-77
2021/12/05 14:17:04;;;;;;;9.40;8.40;;;;;;;;;;5039766;28;20313;-77
2021/12/05 14:19:34;;;;;;;11.70;10.50;;;;;;;;;;5037195;28;20231;-77
2021/12/05 14:22:05;;;;;;;9.73;8.17;;;;;;;;;;5039474;28;20219;-77
2021/12/05 14:24:34;;;;;;;10.40;9.30;;;;;;;;;;5037900;28;20226;-77
2021/12/05 14:27:05;;;;;;;11.73;10.23;;;;;;;;;;5039676;28;20830;-77
2021/12/05 14:29:33;;;;;;;16.20;12.27;;;;;;;;;;5038536;28;20257;-77
2021/12/05 14:32:04;;;;;;;13.27;9.70;;;;;;;;;;5039391;28;21128;-77
2021/12/05 14:34:31;;;;;;;10.53;8.63;;;;;;;;;;5040897;28;20712;-77
2021/12/05 14:37:00;;;;;;;10.03;8.00;;;;;;;;;;5038423;28;20210;-77
2021/12/05 14:39:30;;;;;;;10.10;8.47;;;;;;;;;;5040334;28;20825;-77
2021/12/05 14:41:59;;;;;;;10.20;8.80;;;;;;;;;;5038656;28;20235;-77
2021/12/05 14:44:27;;;;;;;9.37;8.37;;;;;;;;;;5041333;28;20221;-77
2021/12/05 14:46:58;;;;;;;10.53;8.93;;;;;;;;;;5038596;28;20243;-77
2021/12/05 14:49:27;;;;;;;10.40;9.33;;;;;;;;;;5040786;28;20222;-77
2021/12/05 14:51:54;;;;;;;11.93;8.93;;;;;;;;;;5038128;28;20219;-77
2021/12/05 14:54:28;;;;;;;11.53;9.63;;;;;;;;;;5041202;28;20293;-78
2021/12/05 14:56:56;;;;;;;10.63;9.47;;;;;;;;;;5038715;28;20207;-77
2021/12/05 14:59:23;;;;;;;12.13;9.07;;;;;;;;;;5039248;28;20606;-77
2021/12/05 15:01:56;;;;;;;10.43;8.23;;;;;;;;;;5039207;28;20818;-77
2021/12/05 15:04:28;;;;;;;9.80;8.80;;;;;;;;;;5039343;28;20289;-77
2021/12/05 15:06:54;;;;;;;10.20;9.13;;;;;;;;;;5040253;28;20297;-78
2021/12/05 15:09:26;;;;;;;14.17;8.97;;;;;;;;;;5037411;28;20219;-78
2021/12/05 15:11:56;;;;;;;10.80;8.40;;;;;;;;;;5038155;28;20261;-78
2021/12/05 15:14:24;;;;;;;10.83;9.73;;;;;;;;;;5040909;28;20237;-77
2021/12/05 15:16:54;;;;;;;9.70;8.70;;;;;;;;;;5039280;28;20318;-78
2021/12/05 15:19:20;;;;;;;11.20;8.87;;;;;;;;;;5037387;28;20202;-78
2021/12/05 15:21:47;;;;;;;13.30;9.50;;;;;;;;;;5039369;28;21203;-77
2021/12/05 15:24:14;;;;;;;11.10;9.03;;;;;;;;;;5038007;28;20761;-77
2021/12/05 15:26:41;;;;;;;9.70;7.97;;;;;;;;;;5039005;28;20210;-78
2021/12/05 15:29:08;;;;;;;11.33;8.67;;;;;;;;;;5037673;28;20215;-78
2021/12/05 15:31:37;;;;;;;10.07;8.53;;;;;;;;;;5038924;28;20248;-78
2021/12/05 15:34:24;;;;;;;10.87;8.00;;;;;;;;;;5038410;28;20911;-78
2021/12/05 15:36:51;;;;;;;9.90;8.10;;;;;;;;;;5037319;28;20439;-78
2021/12/05 15:39:23;;;;;;;8.73;7.73;;;;;;;;;;5039608;28;20637;-77
2021/12/05 15:41:52;;;;;;;9.70;8.70;;;;;;;;;;5035817;28;20214;-78
2021/12/05 15:44:43;;;;;;;9.07;7.83;;;;;;;;;;5040298;28;20215;-78
2021/12/05 15:47:13;;;;;;;9.50;8.20;;;;;;;;;;5027732;28;20728;-77
2021/12/05 15:49:56;;;;;;;9.50;7.50;;;;;;;;;;5037133;28;20304;-77
2021/12/05 15:52:27;;;;;;;8.73;7.83;;;;;;;;;;5038858;28;20647;-77
2021/12/05 15:54:54;;;;;;;9.20;7.87;;;;;;;;;;5035492;28;20230;-77
2021/12/05 15:57:29;;;;;;;8.30;7.50;;;;;;;;;;5037888;28;20218;-77
2021/12/05 15:59:57;;;;;;;9.70;7.70;;;;;;;;;;5035408;28;20230;-77
2021/12/05 16:02:23;;;;;;;10.80;7.80;;;;;;;;;;5038798;28;20230;-77
2021/12/05 16:04:51;;;;;;;11.97;9.13;;;;;;;;;;5034618;28;20222;-77
2021/12/05 16:07:19;;;;;;;10.23;8.50;;;;;;;;;;5038965;28;20219;-77
2021/12/05 16:09:46;;;;;;;8.97;7.90;;;;;;;;;;5036475;28;20295;-77
2021/12/05 16:12:16;;;;;;;10.63;8.40;;;;;;;;;;5037527;28;20217;-77
2021/12/05 16:14:44;;;;;;;10.30;8.07;;;;;;;;;;5037627;28;20217;-77
2021/12/05 16:17:19;;;;;;;8.80;7.87;;;;;;;;;;5037884;28;20280;-77
2021/12/05 16:20:11;;;;;;;11.90;8.23;;;;;;;;;;5036940;28;20202;-76
2021/12/05 16:23:03;;;;;;;9.07;8.07;;;;;;;;;;5036305;28;20268;-76
2021/12/05 16:25:30;;;;;;;8.83;7.73;;;;;;;;;;5034143;28;20276;-76
2021/12/05 16:28:02;;;;;;;9.07;7.30;;;;;;;;;;5036594;28;20214;-77
2021/12/05 16:30:33;;;;;;;7.97;6.90;;;;;;;;;;5037848;28;20753;-76
2021/12/05 16:33:00;;;;;;;8.23;6.90;;;;;;;;;;5037777;28;20765;-77
2021/12/05 16:35:31;;;;;;;8.27;7.13;;;;;;;;;;5037474;28;20871;-76
2021/12/05 16:37:58;;;;;;;9.30;7.80;;;;;;;;;;5038096;28;20288;-77
2021/12/05 16:40:26;;;;;;;8.67;7.53;;;;;;;;;;5035165;28;20632;-77
2021/12/05 16:43:08;;;;;;;10.10;8.07;;;;;;;;;;5037816;28;20708;-77
2021/12/05 16:45:36;;;;;;;10.47;8.17;;;;;;;;;;5037365;28;20214;-77
2021/12/05 16:48:03;;;;;;;10.57;9.00;;;;;;;;;;5037541;28;20857;-77
2021/12/05 16:50:31;;;;;;;9.27;8.37;;;;;;;;;;5038550;28;20214;-77
2021/12/05 16:52:58;;;;;;;9.67;8.67;;;;;;;;;;5035883;28;20217;-77
2021/12/05 16:55:29;;;;;;;11.20;9.30;;;;;;;;;;5038439;28;20297;-77
2021/12/05 16:58:05;;;;;;;11.07;9.20;;;;;;;;;;5037187;28;20206;-77
2021/12/05 17:00:32;;;;;;;9.97;8.93;;;;;;;;;;5038160;28;20320;-76
2021/12/05 17:03:01;;;;;;;11.70;10.03;;;;;;;;;;5042411;28;20206;-76
2021/12/05 17:05:30;;;;;;;12.13;9.40;;;;;;;;;;5039881;28;20218;-76
2021/12/05 17:08:07;;;;;;;12.17;10.37;;;;;;;;;;5040790;28;20214;-76
2021/12/05 17:10:38;;;;;;;12.10;10.80;;;;;;;;;;5041529;28;20209;-77
2021/12/05 17:13:14;;;;;;;12.87;10.70;;;;;;;;;;5039444;28;21015;-76
2021/12/05 17:15:48;;;;;;;12.60;11.30;;;;;;;;;;5042232;28;20237;-76
2021/12/05 17:18:17;;;;;;;13.80;12.00;;;;;;;;;;5041580;28;20207;-76
2021/12/05 17:20:47;;;;;;;15.57;12.43;;;;;;;;;;5040358;28;20471;-76
2021/12/05 17:23:21;;;;;;;13.20;11.20;;;;;;;;;;5042291;28;20289;-76
2021/12/05 17:25:51;;;;;;;11.10;9.90;;;;;;;;;;5038977;28;20230;-76
2021/12/05 17:28:29;;;;;;;15.77;12.03;;;;;;;;;;5042447;28;20215;-77
2021/12/05 17:30:57;;;;;;;13.17;11.47;;;;;;;;;;5040593;28;21012;-76
2021/12/05 17:33:27;;;;;;;11.90;10.60;;;;;;;;;;5041451;28;20288;-76
2021/12/05 17:35:54;;;;;;;11.27;10.07;;;;;;;;;;5041878;28;20214;-77
2021/12/05 17:38:33;;;;;;;12.13;9.53;;;;;;;;;;5040012;28;20242;-76
2021/12/05 17:40:59;;;;;;;11.67;10.47;;;;;;;;;;5040263;28;20646;-76
2021/12/05 17:43:26;;;;;;;12.37;10.90;;;;;;;;;;5040449;28;20218;-76
2021/12/05 17:45:52;;;;;;;12.87;10.50;;;;;;;;;;5039728;28;20718;-76
2021/12/05 17:48:19;;;;;;;11.43;9.87;;;;;;;;;;5042013;28;20238;-76
2021/12/05 17:50:46;;;;;;;11.10;9.97;;;;;;;;;;5038149;28;20210;-76
2021/12/05 17:53:12;;;;;;;12.40;10.60;;;;;;;;;;5041511;28;21116;-77
2021/12/05 17:55:45;;;;;;;10.23;8.93;;;;;;;;;;5039846;28;20229;-76
2021/12/05 17:58:22;;;;;;;13.27;10.87;;;;;;;;;;5039199;28;20233;-76
2021/12/05 18:02:36;;;;;;;10.47;9.37;;;;;;;;;;5040288;28;20322;-77
2021/12/05 18:03:44;;;;;;;11.13;10.00;;;;;;;;;;5039198;28;20191;-77
2021/12/05 18:06:10;;;;;;;14.23;10.47;;;;;;;;;;5040297;28;20219;-77
2021/12/05 18:08:37;;;;;;;13.47;11.50;;;;;;;;;;5040285;28;20288;-77
2021/12/05 18:11:11;;;;;;;12.80;9.90;;;;;;;;;;5038833;28;20226;-77
2021/12/05 18:13:40;;;;;;;10.00;9.00;;;;;;;;;;5041364;28;20214;-76
2021/12/05 18:16:13;;;;;;;10.67;9.57;;;;;;;;;;5038781;28;20765;-77
2021/12/05 18:18:41;;;;;;;12.17;10.07;;;;;;;;;;5039767;28;20222;-77
2021/12/05 18:21:09;;;;;;;11.83;10.30;;;;;;;;;;5039319;28;20329;-77
2021/12/05 18:23:38;;;;;;;11.33;10.17;;;;;;;;;;5038199;28;20210;-75
2021/12/05 18:26:06;;;;;;;10.97;9.87;;;;;;;;;;5040386;28;21124;-77
2021/12/05 18:28:35;;;;;;;12.43;9.90;;;;;;;;;;5039866;28;20612;-76
2021/12/05 18:31:02;;;;;;;13.07;10.70;;;;;;;;;;5039169;28;20218;-76
2021/12/05 18:33:30;;;;;;;15.27;12.23;;;;;;;;;;5040527;28;20268;-76
2021/12/05 18:35:56;;;;;;;14.10;12.17;;;;;;;;;;5038561;28;20226;-76
2021/12/05 18:38:24;;;;;;;14.83;12.20;;;;;;;;;;5040965;28;20245;-76
2021/12/05 18:40:54;;;;;;;16.43;12.57;;;;;;;;;;5038888;28;20238;-76
2021/12/05 18:43:26;;;;;;;15.20;11.90;;;;;;;;;;5039502;28;20715;-76
2021/12/05 18:45:53;;;;;;;15.77;12.07;;;;;;;;;;5038923;28;20807;-76
2021/12/05 18:48:20;;;;;;;13.53;11.97;;;;;;;;;;5038616;28;20238;-76
2021/12/05 18:50:47;;;;;;;16.30;12.17;;;;;;;;;;5039624;28;20220;-76
2021/12/05 18:53:16;;;;;;;17.70;13.10;;;;;;;;;;5037992;28;20269;-76